Main page
METAR-TAF:

METAR-TAF

Airports :

Allegheny County Airport

Pittsburgh / West Mifflin, Pennsylvania, United States

latitude: 40-21-17N, longitude: 079-55-18W, elevation: 1253 ft

Current weather observation

The report was made 22 minutes ago, at 21:53 UTC
Wind 15 mph from the North/Northwest with gusts up to 23 mph
Temperature 52°F
Humidity 50%
Pressure 29.86 in. Hg
Visibility: 10 miles
Few clouds at a height of 4900 ft
Scattered clouds at a height of 5500 ft
Overcast at a height of 8500 ft

METAR: KAGC 012153Z 34013G20KT 10SM FEW049 SCT055 OVC085 11/01 A2986 RMK AO2 SLP122 T01060011 $

Time: 18:15 (22:15 UTC)

Forecast

The report was made 1 hour and 13 minutes ago, at 21:02 UTC
Forecast valid from 01 at 21 UTC to 02 at 18 UTC
Wind 12 mph from the Northwest with gusts up to 23 mph
Visibility: 6 miles
Broken clouds at a height of 4000 ft
From 02 at 0000 UTC
Wind 6 mph from the North/Northwest
Visibility: 6 miles
Clear sky

TAF: KAGC 012102Z 0121/0218 32010G20KT P6SM BKN040 FM020000 33005KT P6SM SKC

Weather observations and forecasts of more than 4000 airports (METAR and TAF reports).

The available stations are represented by yellow and red dots on the map.

Hover mouse over dot to see the name of the station.

Then click to see weather observations and forecasts.

To change the map : click on the green buttons with a black cross to zoom in, on the green button with a dash to zoom out, or on the green arrows for adjacent maps.


METAR-TAF: